Time;durP1;ratioP1;P1;durP2;ratioP2;P2;SDS_P1;SDS_P2;PMS_P1;PMS_P2;Temp;Humidity;BMP_temperature;BMP_pressure;BME280_temperature;BME280_humidity;BME280_pressure;Samples;Min_cycle;Max_cycle;Signal;HPM_P1;HPM_P2
2022/05/25 00:01:21;;;;;;;6.05;5.00;;;;;;;22.56;54.88;94485.63;5134114;27;20307;-79
2022/05/25 00:03:48;;;;;;;5.22;4.47;;;;;;;22.54;54.85;94496.25;5113831;28;20189;-81
2022/05/25 00:06:15;;;;;;;7.50;4.72;;;;;;;22.52;54.99;94493.06;5129687;27;20188;-82
2022/05/25 00:08:42;;;;;;;6.03;4.63;;;;;;;22.49;54.92;94493.47;5134408;27;20185;-82
2022/05/25 00:11:10;;;;;;;5.97;5.30;;;;;;;22.46;55.32;94494.72;5115592;27;20189;-82
2022/05/25 00:13:38;;;;;;;5.55;4.75;;;;;;;22.39;55.08;94488.78;5113971;28;20182;-79
2022/05/25 00:16:05;;;;;;;7.45;5.22;;;;;;;22.39;55.15;94486.16;5114619;28;20193;-82
2022/05/25 00:18:33;;;;;;;8.25;5.07;;;;;;;22.35;55.37;94492.81;5113658;28;20589;-83
2022/05/25 00:21:00;;;;;;;5.55;4.85;;;;;;;22.28;55.50;94481.69;5114214;28;20247;-83
2022/05/25 00:23:27;;;;;;;5.68;5.00;;;;;;;22.31;55.53;94498.69;5113637;28;20690;-83
2022/05/25 00:25:54;;;;;;;7.43;5.38;;;;;;;22.30;55.64;94492.69;5113969;28;20197;-81
2022/05/25 00:28:21;;;;;;;5.80;5.05;;;;;;;22.30;55.70;94495.28;5121396;28;20189;-80
2022/05/25 00:30:48;;;;;;;6.95;4.78;;;;;;;22.28;55.58;94494.72;5147287;27;20192;-80
2022/05/25 00:33:17;;;;;;;5.30;4.80;;;;;;;22.26;55.59;94499.31;5141488;27;20192;-83
2022/05/25 00:35:45;;;;;;;7.07;4.80;;;;;;;22.23;55.61;94491.94;5117799;27;20192;-81
2022/05/25 00:38:12;;;;;;;5.20;4.80;;;;;;;22.18;55.78;94489.97;5113469;28;20185;-81
2022/05/25 00:40:41;;;;;;;5.60;5.07;;;;;;;22.16;55.85;94497.22;5112561;28;20325;-83
2022/05/25 00:43:09;;;;;;;7.95;5.30;;;;;;;22.13;55.91;94489.03;5112882;28;20185;-83
2022/05/25 00:45:40;;;;;;;5.75;4.88;;;;;;;22.04;55.94;94478.06;5112869;28;20185;-84
2022/05/25 00:48:08;;;;;;;9.32;4.97;;;;;;;22.13;55.96;94496.84;5112893;28;20220;-81
2022/05/25 00:53:17;;;;;;;6.13;4.90;;;;;;;22.04;56.07;94494.47;5112590;28;20282;-83
2022/05/25 00:55:46;;;;;;;5.90;5.32;;;;;;;22.06;56.13;94499.47;5112908;28;20195;-82
2022/05/25 00:58:13;;;;;;;8.55;5.00;;;;;;;22.03;56.19;94494.69;5113482;28;20185;-82
2022/05/25 01:00:40;;;;;;;5.30;4.70;;;;;;;22.00;56.19;94495.91;5112789;28;20209;-81
2022/05/25 01:03:10;;;;;;;5.60;4.90;;;;;;;21.98;56.21;94497.94;5112190;28;20646;-80
2022/05/25 01:05:42;;;;;;;6.78;5.20;;;;;;;21.95;56.31;94494.97;5113431;27;20192;-84
2022/05/25 01:08:27;;;;;;;7.10;4.83;;;;;;;21.90;56.35;94497.41;5101222;27;20197;-82
2022/05/25 01:11:19;;;;;;;7.47;5.23;;;;;;;21.90;56.55;94505.22;5132938;27;20192;-80
2022/05/25 01:13:55;;;;;;;6.53;4.83;;;;;;;21.89;56.44;94511.41;5133221;27;20245;-83
2022/05/25 01:16:29;;;;;;;6.50;5.13;;;;;;;21.79;56.60;94493.66;5133533;27;20191;-81
2022/05/25 01:19:10;;;;;;;5.25;4.72;;;;;;;21.84;56.53;94506.06;5132507;27;20190;-83
2022/05/25 01:21:44;;;;;;;8.93;5.10;;;;;;;21.82;56.87;94514.09;5131890;27;20212;-83
2022/05/25 01:24:26;;;;;;;9.00;5.33;;;;;;;21.82;56.75;94510.69;5132747;27;20184;-83
2022/05/25 01:27:29;;;;;;;9.35;5.03;;;;;;;21.79;56.77;94512.69;5132333;27;20184;-83
2022/05/25 01:30:11;;;;;;;6.60;5.33;;;;;;;21.71;57.01;94505.13;5132577;27;20551;-81
2022/05/25 01:32:47;;;;;;;8.02;5.30;;;;;;;21.53;56.73;94479.84;5091242;28;20186;-82
2022/05/25 01:35:22;;;;;;;8.07;5.33;;;;;;;21.69;56.89;94512.38;5091797;28;20186;-84
2022/05/25 01:38:06;;;;;;;12.80;5.07;;;;;;;21.67;56.88;94509.16;5091742;28;20208;-81
2022/05/25 01:40:42;;;;;;;8.45;5.90;;;;;;;21.67;57.12;94511.75;5090928;28;20308;-84
2022/05/25 01:43:13;;;;;;;7.50;5.73;;;;;;;21.60;57.07;94511.03;5130281;27;20184;-84
2022/05/25 01:45:46;;;;;;;7.65;6.18;;;;;;;21.60;57.34;94512.84;5133547;27;20192;-83
2022/05/25 01:48:15;;;;;;;7.70;6.20;;;;;;;21.56;57.42;94509.06;5133531;27;20212;-83
2022/05/25 01:50:48;;;;;;;8.93;6.17;;;;;;;21.60;57.33;94512.84;5132246;27;20203;-82
2022/05/25 01:53:18;;;;;;;9.03;6.63;;;;;;;21.48;57.20;94503.09;5130054;27;20679;-80
2022/05/25 01:55:49;;;;;;;7.53;6.73;;;;;;;21.56;57.38;94524.69;5131635;27;20200;-83
2022/05/25 01:58:19;;;;;;;9.20;6.20;;;;;;;21.54;57.52;94527.47;5132449;27;20176;-82
2022/05/25 02:00:49;;;;;;;10.23;7.43;;;;;;;21.46;57.59;94528.53;5131689;27;20208;-83
2022/05/25 02:06:31;;;;;;;14.83;8.93;;;;;;;21.45;57.77;94536.53;5131661;27;20762;-82
2022/05/25 02:09:03;;;;;;;14.97;10.93;;;;;;;;;;5131394;27;20199;-83
2022/05/25 02:11:35;;;;;;;20.37;12.17;;;;;;;21.37;57.96;94537.56;5131368;27;20201;-83
2022/05/25 02:14:10;;;;;;;25.70;15.10;;;;;;;21.35;57.92;94531.00;5129801;27;20244;-80
2022/05/25 02:16:49;;;;;;;26.97;14.77;;;;;;;21.36;57.91;94542.97;5131527;27;20192;-77
2022/05/25 02:19:24;;;;;;;32.90;16.23;;;;;;;21.24;57.94;94527.19;5131191;27;20188;-84
2022/05/25 02:21:56;;;;;;;31.30;18.23;;;;;;;21.30;57.92;94545.38;5130088;27;20247;-84
2022/05/25 02:24:29;;;;;;;28.33;16.43;;;;;;;21.29;58.06;94553.41;5131403;27;20180;-83
2022/05/25 02:27:04;;;;;;;26.63;16.10;;;;;;;21.27;58.27;94552.81;5131333;27;20272;-82
2022/05/25 02:29:35;;;;;;;28.80;15.87;;;;;;;21.22;58.47;94550.03;5121606;27;20192;-83
2022/05/25 02:32:12;;;;;;;27.10;16.33;;;;;;;21.25;58.38;94557.44;5116228;27;20185;-83
2022/05/25 02:34:43;;;;;;;27.70;16.30;;;;;;;21.22;58.45;94553.41;5131406;27;20196;-83
2022/05/25 02:37:11;;;;;;;32.40;15.23;;;;;;;21.21;58.38;94567.44;5131413;27;20180;-81
2022/05/25 02:39:38;;;;;;;29.93;15.17;;;;;;;21.20;58.27;94560.66;5130929;27;20572;-82
2022/05/25 02:42:13;;;;;;;25.27;15.00;;;;;;;21.19;58.40;94563.44;5111454;28;20224;-82
2022/05/25 02:44:40;;;;;;;27.00;13.87;;;;;;;21.18;58.50;94567.03;5111282;28;20212;-84
2022/05/25 02:47:09;;;;;;;28.10;14.23;;;;;;;21.15;58.51;94570.06;5111040;28;20189;-83
2022/05/25 02:49:36;;;;;;;22.27;13.23;;;;;;;21.14;58.40;94574.47;5110422;28;20605;-82
2022/05/25 02:52:03;;;;;;;25.23;14.17;;;;;;;21.03;58.38;94562.91;5110881;28;20192;-83
2022/05/25 02:54:30;;;;;;;23.87;12.73;;;;;;;21.08;58.69;94574.50;5110847;28;20192;-84
2022/05/25 02:56:57;;;;;;;22.00;13.17;;;;;;;21.08;58.59;94566.69;5110551;28;20189;-82
2022/05/25 02:59:24;;;;;;;22.00;12.57;;;;;;;21.09;58.62;94576.09;5112499;28;20193;-83
2022/05/25 03:01:51;;;;;;;19.07;12.07;;;;;;;21.08;58.73;94574.50;5131204;27;20216;-81
2022/05/25 03:04:19;;;;;;;18.47;12.00;;;;;;;21.08;58.64;94583.09;5131964;27;20185;-82
2022/05/25 03:06:46;;;;;;;16.20;11.07;;;;;;;20.98;58.91;94565.31;5131664;27;20198;-84
2022/05/25 03:09:13;;;;;;;16.47;11.30;;;;;;;21.09;58.54;94576.09;5131397;27;20217;-84
2022/05/25 03:11:40;;;;;;;17.10;10.83;;;;;;;21.09;58.73;94584.69;5131538;27;20200;-84
2022/05/25 03:14:07;;;;;;;15.37;10.23;;;;;;;21.08;58.75;94588.28;5130700;27;20192;-82
2022/05/25 03:16:34;;;;;;;21.83;11.43;;;;;;;21.11;58.75;94592.25;5130936;27;20185;-82
2022/05/25 03:19:01;;;;;;;17.43;10.60;;;;;;;21.10;58.91;94596.66;5127631;27;20185;-82
2022/05/25 03:21:29;;;;;;;18.03;10.73;;;;;;;21.11;58.83;94598.25;5110327;28;20221;-82
2022/05/25 03:23:56;;;;;;;16.37;10.10;;;;;;;21.12;58.91;94593.88;5110909;28;20189;-79
2022/05/25 03:26:24;;;;;;;16.77;10.20;;;;;;;21.18;58.85;94600.84;5110326;28;20189;-79
2022/05/25 03:28:51;;;;;;;14.93;10.20;;;;;;;21.21;58.95;94609.06;5110802;28;20264;-79
2022/05/25 03:31:18;;;;;;;11.20;9.20;;;;;;;21.22;59.10;94609.84;5117067;28;20176;-80
2022/05/25 03:33:44;;;;;;;21.93;10.03;;;;;;;21.25;58.96;94615.44;5131125;27;20184;-80
2022/05/25 03:36:11;;;;;;;14.97;9.60;;;;;;;21.29;58.92;94615.84;5130193;27;20455;-78
2022/05/25 03:38:45;;;;;;;12.27;9.03;;;;;;;21.32;58.87;94623.25;5126222;27;20204;-82
2022/05/25 03:41:12;;;;;;;16.93;9.10;;;;;;;21.23;58.80;94607.03;5114446;28;20600;-81
2022/05/25 03:43:40;;;;;;;19.27;9.53;;;;;;;21.38;59.13;94624.25;5125431;27;20189;-82
2022/05/25 03:46:07;;;;;;;14.27;9.60;;;;;;;21.41;58.95;94632.41;5112260;28;20188;-82
2022/05/25 03:48:34;;;;;;;12.37;8.77;;;;;;;21.45;59.03;94625.78;5113895;28;20236;-81
2022/05/25 03:51:01;;;;;;;12.10;8.50;;;;;;;21.50;58.89;94638.19;5113823;28;20193;-77
2022/05/25 03:53:28;;;;;;;10.47;8.83;;;;;;;21.56;58.81;94645.19;5113671;28;20220;-83
2022/05/25 03:55:56;;;;;;;12.43;9.30;;;;;;;21.54;58.92;94637.59;5113768;28;20196;-83
2022/05/25 03:58:23;;;;;;;14.03;9.53;;;;;;;21.66;58.82;94650.72;5113665;28;20189;-81
2022/05/25 04:00:50;;;;;;;13.30;8.57;;;;;;;21.71;58.84;94643.09;5113839;28;20189;-82
2022/05/25 04:03:17;;;;;;;14.53;9.27;;;;;;;21.76;59.02;94653.69;5115029;27;20181;-81
2022/05/25 04:05:44;;;;;;;10.87;9.07;;;;;;;21.82;59.14;94651.28;5113379;27;20196;-81
2022/05/25 04:08:12;;;;;;;13.93;8.27;;;;;;;21.86;59.14;94648.03;5113765;28;20192;-82
2022/05/25 04:10:39;;;;;;;13.33;8.80;;;;;;;21.86;59.04;94642.03;5113912;28;20185;-80
2022/05/25 04:13:07;;;;;;;9.63;7.70;;;;;;;21.99;58.90;94655.78;5113165;28;20668;-82
2022/05/25 04:15:35;;;;;;;13.15;8.30;;;;;;;21.99;58.91;94647.16;5113447;28;20185;-82
2022/05/25 04:18:02;;;;;;;11.15;8.38;;;;;;;22.10;58.68;94643.88;5113100;28;20197;-83
2022/05/25 04:20:31;;;;;;;10.73;7.82;;;;;;;22.18;58.55;94645.47;5113097;28;20192;-83
2022/05/25 04:22:58;;;;;;;10.57;8.30;;;;;;;22.25;58.40;94638.44;5123508;27;20211;-79
2022/05/25 04:25:26;;;;;;;12.35;8.05;;;;;;;22.33;58.48;94638.16;5133688;27;20192;-81
2022/05/25 04:27:55;;;;;;;10.70;7.43;;;;;;;22.41;58.33;94647.50;5135501;27;20568;-86
2022/05/25 04:30:26;;;;;;;8.68;7.68;;;;;;;22.43;58.20;94635.88;5135588;27;20268;-80
2022/05/25 04:32:53;;;;;;;7.87;7.10;;;;;;;22.56;57.86;94644.59;5133136;27;20180;-77
2022/05/25 04:35:21;;;;;;;9.82;5.80;;;;;;;22.74;69.10;94657.69;5133581;27;20188;-82
2022/05/25 04:37:53;;;;;;;17.75;10.48;;;;;;;22.94;71.89;94658.34;5133042;27;20249;-82
2022/05/25 04:40:25;;;;;;;22.35;13.02;;;;;;;23.15;75.11;94654.53;5133467;27;20188;-79
2022/05/25 04:42:53;;;;;;;35.30;19.02;;;;;;;23.39;78.73;94662.50;5132154;27;20280;-74
2022/05/25 04:45:20;;;;;;;33.92;18.02;;;;;;;23.60;80.28;94661.25;5133102;27;20185;-81
2022/05/25 04:47:49;;;;;;;25.30;15.77;;;;;;;23.71;78.76;94650.13;5133283;27;20262;-84
2022/05/25 04:50:19;;;;;;;18.65;13.18;;;;;;;23.96;77.16;94655.19;5131847;27;20196;-82
2022/05/25 04:52:47;;;;;;;21.95;11.88;;;;;;;24.10;75.69;94653.22;5134235;27;20177;-82
2022/05/25 04:57:19;;;;;;;18.02;11.45;;;;;;;24.21;75.07;94642.78;5132595;27;20636;-80
2022/05/25 04:58:01;;;;;;;22.42;10.93;;;;;;;24.39;73.56;94652.41;5134281;27;20181;-77
2022/05/25 05:00:28;;;;;;;26.80;9.68;;;;;;;24.55;71.15;94658.03;5133805;27;20188;-77
2022/05/25 05:02:56;;;;;;;23.27;9.95;;;;;;;24.63;70.67;94637.56;5133098;27;20208;-76
2022/05/25 05:05:23;;;;;;;15.27;9.15;;;;;;;24.82;69.76;94656.56;5115758;27;20193;-73
2022/05/25 05:07:50;;;;;;;11.45;8.00;;;;;;;24.98;67.76;94652.47;5110020;27;20310;-78
2022/05/25 05:10:17;;;;;;;14.63;7.80;;;;;;;25.08;67.59;94633.56;5110328;27;20587;-82
2022/05/25 05:12:44;;;;;;;10.75;7.72;;;;;;;25.41;65.84;94646.09;5110356;27;20186;-79
2022/05/25 05:15:12;;;;;;;9.98;7.78;;;;;;;25.69;62.92;94663.66;5109691;27;20189;-78
2022/05/25 05:17:40;;;;;;;14.23;7.60;;;;;;;25.88;63.39;94656.47;5112071;28;20197;-78
2022/05/25 05:20:10;;;;;;;14.35;6.28;;;;;;;26.36;62.22;94681.44;5111705;28;20189;-78
2022/05/25 05:22:37;;;;;;;6.53;5.68;;;;;;;26.81;61.15;94680.63;5111896;28;20654;-77
2022/05/25 05:25:05;;;;;;;8.15;5.20;;;;;;;27.28;60.13;94675.81;5111814;28;20181;-78
2022/05/25 05:27:32;;;;;;;8.02;5.13;;;;;;;27.78;58.95;94676.75;5112331;28;20197;-78
2022/05/25 05:30:02;;;;;;;8.88;4.80;;;;;;;28.29;57.70;94669.41;5112201;28;20189;-79
2022/05/25 05:32:30;;;;;;;5.40;4.82;;;;;;;28.89;55.76;94673.63;5112579;28;20200;-79
2022/05/25 05:34:57;;;;;;;8.88;4.75;;;;;;;29.50;54.48;94687.19;5111478;28;20186;-78
2022/05/25 05:37:30;;;;;;;8.18;4.13;;;;;;;30.07;53.09;94690.88;5111715;28;20641;-78
2022/05/25 05:39:58;;;;;;;6.75;3.63;;;;;;;30.64;51.68;94693.38;5111221;28;20192;-77
2022/05/25 05:42:27;;;;;;;9.40;4.18;;;;;;;31.08;50.16;94678.84;5111453;28;20232;-78
2022/05/25 05:44:59;;;;;;;5.38;4.30;;;;;;;31.78;48.68;94708.88;5111224;27;20185;-79
2022/05/25 05:47:30;;;;;;;5.22;4.10;;;;;;;32.36;47.04;94713.66;5111014;28;20193;-78
2022/05/25 05:49:58;;;;;;;5.35;4.38;;;;;;;32.91;45.99;94711.72;5111142;28;20200;-79
2022/05/25 05:52:28;;;;;;;10.48;3.95;;;;;;;33.43;44.50;94710.19;5111238;28;20566;-79
2022/05/25 05:54:55;;;;;;;5.80;3.90;;;;;;;33.93;43.68;94708.84;5111139;28;20188;-79
2022/05/25 05:57:22;;;;;;;8.40;4.55;;;;;;;34.28;42.31;94685.59;5108155;27;20196;-78
2022/05/25 05:59:48;;;;;;;11.93;4.57;;;;;;;34.91;41.48;94709.13;5091001;28;20186;-78
2022/05/25 06:02:15;;;;;;;6.82;4.03;;;;;;;35.41;40.52;94709.38;5091031;28;20210;-78
2022/05/25 06:04:42;;;;;;;5.95;4.28;;;;;;;35.86;39.54;94711.47;5090412;28;20666;-78
2022/05/25 06:07:09;;;;;;;6.20;4.68;;;;;;;36.31;38.73;94720.41;5090898;28;20185;-79
2022/05/25 06:09:37;;;;;;;6.18;4.00;;;;;;;36.72;37.64;94716.09;5090977;28;20216;-78
2022/05/25 06:12:05;;;;;;;4.30;3.55;;;;;;;37.10;37.42;94713.88;5090682;28;20197;-77
2022/05/25 06:14:32;;;;;;;7.53;4.20;;;;;;;37.55;36.63;94721.81;5090862;28;20243;-78
2022/05/25 06:19:43;;;;;;;4.82;3.85;;;;;;;38.36;35.20;94718.78;5090734;28;20216;-77
2022/05/25 06:22:12;;;;;;;7.43;4.10;;;;;;;38.74;34.75;94723.53;5090145;28;20717;-78
2022/05/25 06:24:43;;;;;;;5.35;4.43;;;;;;;38.97;34.11;94706.22;5090198;28;20193;-78
2022/05/25 06:27:11;;;;;;;9.68;4.80;;;;;;;39.20;33.17;94700.66;5090024;28;20297;-78
2022/05/25 06:29:40;;;;;;;9.63;4.57;;;;;;;39.60;32.91;94718.03;5090718;28;20182;-77
2022/05/25 06:32:09;;;;;;;9.40;4.10;;;;;;;40.01;32.11;94737.25;5090065;28;20285;-78
2022/05/25 06:34:38;;;;;;;8.15;4.07;;;;;;;40.28;32.09;94731.44;5090843;28;20252;-78
2022/05/25 06:37:05;;;;;;;5.65;4.25;;;;;;;40.55;31.70;94729.41;5090000;28;20185;-79
2022/05/25 06:39:36;;;;;;;6.13;3.65;;;;;;;40.82;31.04;94734.22;5090562;28;20208;-78
2022/05/25 06:42:06;;;;;;;6.47;4.15;;;;;;;41.04;30.88;94735.00;5090095;28;20292;-78
2022/05/25 06:44:33;;;;;;;6.85;4.13;;;;;;;41.32;30.15;94729.81;5090387;28;20188;-78
2022/05/25 06:47:01;;;;;;;5.78;4.25;;;;;;;41.51;30.21;94726.66;5090104;28;20189;-77
2022/05/25 06:49:28;;;;;;;5.82;4.15;;;;;;;41.78;29.74;94752.88;5089960;28;20282;-79
2022/05/25 06:51:55;;;;;;;4.40;3.97;;;;;;;41.98;29.59;94743.16;5089783;28;20200;-79
2022/05/25 06:54:22;;;;;;;5.57;4.25;;;;;;;42.19;28.99;94734.16;5090198;28;20193;-78
2022/05/25 06:56:49;;;;;;;9.50;4.50;;;;;;;42.38;28.55;94745.16;5089527;28;20201;-79
2022/05/25 06:59:18;;;;;;;7.05;4.45;;;;;;;42.48;28.93;94727.78;5090172;28;20705;-78
2022/05/25 07:01:46;;;;;;;6.45;4.10;;;;;;;42.68;28.59;94731.44;5089717;28;20192;-78
2022/05/25 07:04:13;;;;;;;11.85;4.55;;;;;;;42.94;28.12;94744.47;5090033;28;20661;-79
2022/05/25 07:06:40;;;;;;;6.82;3.78;;;;;;;42.70;27.63;94678.06;5089951;28;20268;-77
2022/05/25 07:09:10;;;;;;;4.13;3.53;;;;;;;43.27;27.56;94750.41;5089850;28;20589;-78
2022/05/25 07:11:38;;;;;;;4.78;4.10;;;;;;;43.32;27.61;94733.22;5089725;28;20952;-78
2022/05/25 07:14:06;;;;;;;9.07;4.07;;;;;;;43.47;27.35;94734.38;5093635;28;20199;-75
2022/05/25 07:16:35;;;;;;;5.93;4.10;;;;;;;43.71;27.51;94752.31;5100959;28;20193;-75
2022/05/25 07:19:02;;;;;;;7.32;4.03;;;;;;;43.80;27.32;94747.50;5119712;27;20578;-75
2022/05/25 07:21:31;;;;;;;7.15;4.20;;;;;;;43.95;26.58;94751.34;5120598;27;20197;-77
2022/05/25 07:24:00;;;;;;;4.90;4.45;;;;;;;44.06;26.70;94755.09;5093335;28;20256;-76
2022/05/25 07:26:29;;;;;;;17.67;4.25;;;;;;;44.11;26.48;94754.03;5093400;28;20272;-75
2022/05/25 07:28:56;;;;;;;5.93;4.65;;;;;;;44.21;26.55;94762.34;5096231;28;20189;-73
2022/05/25 07:31:25;;;;;;;10.90;4.60;;;;;;;44.26;26.40;94764.84;5114230;28;20575;-75
2022/05/25 07:34:01;;;;;;;9.80;4.45;;;;;;;44.29;26.43;94749.84;5114923;27;20201;-79
2022/05/25 07:36:29;;;;;;;8.88;4.47;;;;;;;44.30;25.68;94746.81;5115135;27;20180;-76
2022/05/25 07:39:00;;;;;;;12.20;4.15;;;;;;;44.30;25.88;94736.03;5128564;27;20196;-75
2022/05/25 07:41:28;;;;;;;6.90;3.95;;;;;;;44.37;26.08;94743.47;5133957;27;20184;-74
2022/05/25 07:43:58;;;;;;;9.45;4.22;;;;;;;44.39;25.96;94735.81;5133781;27;20290;-76
2022/05/25 07:46:26;;;;;;;9.85;4.90;;;;;;;44.40;25.76;94737.38;5134072;27;20188;-76
2022/05/25 07:48:55;;;;;;;5.60;4.10;;;;;;;44.44;25.65;94726.66;5117424;27;20221;-76
2022/05/25 07:51:23;;;;;;;9.93;4.25;;;;;;;44.41;25.55;94720.06;5112260;28;20669;-74
2022/05/25 07:53:57;;;;;;;10.13;4.60;;;;;;;44.46;25.83;94729.78;5112070;28;20653;-75
2022/05/25 07:56:25;;;;;;;7.60;4.80;;;;;;;44.30;25.56;94706.34;5112244;27;20199;-76
2022/05/25 07:58:52;;;;;;;9.07;4.93;;;;;;;44.22;25.83;94704.59;5109796;28;20192;-75
2022/05/25 08:05:43;;;;;;;6.40;4.20;;;;;;;44.37;25.26;94729.22;5112851;28;20210;-75
2022/05/25 08:07:00;;;;;;;6.53;3.90;;;;;;;44.26;25.08;94718.19;5112198;28;20223;-75
2022/05/25 08:09:28;;;;;;;6.80;4.30;;;;;;;44.30;25.18;94737.91;5112008;28;20609;-75
2022/05/25 08:11:55;;;;;;;8.50;4.28;;;;;;;44.16;25.71;94721.41;5115031;27;20192;-76
2022/05/25 08:14:24;;;;;;;6.40;4.80;;;;;;;44.06;25.36;94714.66;5113696;27;20192;-75
2022/05/25 08:16:53;;;;;;;10.20;4.90;;;;;;;44.12;25.24;94734.78;5113662;27;20204;-78
2022/05/25 08:19:21;;;;;;;8.57;4.68;;;;;;;44.06;25.03;94738.91;5112111;28;20188;-74
2022/05/25 08:21:48;;;;;;;5.85;4.97;;;;;;;43.91;25.15;94724.31;5111902;28;20272;-76
2022/05/25 08:24:15;;;;;;;5.75;4.82;;;;;;;43.76;25.35;94703.53;5111664;27;20216;-77
2022/05/25 08:26:42;;;;;;;5.95;4.53;;;;;;;43.77;25.64;94722.03;5112022;28;20191;-80
2022/05/25 08:29:09;;;;;;;8.57;5.10;;;;;;;43.53;25.55;94706.84;5112591;28;20184;-83
2022/05/25 08:31:38;;;;;;;8.07;4.95;;;;;;;43.56;25.68;94740.38;5111891;27;20212;-78
2022/05/25 08:34:06;;;;;;;7.50;4.38;;;;;;;43.40;25.96;94740.34;5112016;28;20188;-81
2022/05/25 08:36:35;;;;;;;7.05;4.97;;;;;;;43.34;25.80;94744.41;5114343;28;20283;-78
2022/05/25 08:39:02;;;;;;;9.65;5.20;;;;;;;43.23;26.10;94740.69;5115268;27;20193;-79
2022/05/25 08:41:32;;;;;;;8.73;4.65;;;;;;;43.13;25.58;94743.84;5114979;27;20196;-75
2022/05/25 08:44:01;;;;;;;6.40;4.95;;;;;;;42.98;25.83;94734.59;5114894;27;20242;-76
2022/05/25 08:46:31;;;;;;;5.63;4.90;;;;;;;42.92;26.48;94742.09;5112875;28;20191;-77
2022/05/25 08:49:01;;;;;;;6.32;4.97;;;;;;;42.75;25.89;94734.31;5108814;28;20624;-75
2022/05/25 08:51:30;;;;;;;8.10;4.65;;;;;;;42.68;26.35;94747.59;5111453;28;20196;-77
2022/05/25 08:54:01;;;;;;;5.75;4.78;;;;;;;42.58;26.16;94762.28;5112423;27;20567;-75
2022/05/25 08:56:36;;;;;;;7.53;5.88;;;;;;;42.43;26.03;94744.94;5111268;28;20245;-75
2022/05/25 08:59:07;;;;;;;8.75;5.30;;;;;;;42.32;26.16;94739.25;5111085;28;20199;-75
2022/05/25 09:01:42;;;;;;;5.75;4.80;;;;;;;42.19;26.57;94744.94;5111726;27;20181;-74
2022/05/25 09:04:17;;;;;;;6.53;5.43;;;;;;;42.02;26.81;94741.38;5109053;28;20611;-75
2022/05/25 09:06:52;;;;;;;13.00;5.13;;;;;;;41.91;27.03;94745.63;5107403;27;20941;-75
2022/05/25 09:09:27;;;;;;;8.27;5.30;;;;;;;41.78;26.92;94738.66;5109723;28;20203;-79
2022/05/25 09:11:58;;;;;;;7.03;4.75;;;;;;;41.56;27.01;94729.13;5110560;27;20188;-78
2022/05/25 09:14:31;;;;;;;8.30;5.00;;;;;;;41.49;27.28;94735.03;5107840;28;20204;-75
2022/05/25 09:17:04;;;;;;;6.55;5.18;;;;;;;41.33;27.41;94745.63;5109597;28;20192;-78
2022/05/25 09:19:35;;;;;;;5.50;4.47;;;;;;;41.04;27.48;94732.31;5108904;28;20181;-75
2022/05/25 09:22:06;;;;;;;7.53;5.03;;;;;;;40.95;27.63;94745.78;5109002;27;20275;-73
2022/05/25 09:24:36;;;;;;;6.43;4.60;;;;;;;40.86;27.50;94753.13;5109612;27;20229;-76
2022/05/25 09:27:05;;;;;;;7.80;5.32;;;;;;;40.62;27.62;94737.69;5108167;27;20576;-76
2022/05/25 09:29:32;;;;;;;7.40;5.03;;;;;;;40.54;27.72;94746.59;5107723;27;20196;-77
2022/05/25 09:32:16;;;;;;;6.35;5.07;;;;;;;40.27;27.92;94737.13;5108240;28;20200;-77
2022/05/25 09:34:49;;;;;;;6.03;4.90;;;;;;;40.17;28.08;94743.66;5108423;27;20196;-75
2022/05/25 09:37:30;;;;;;;8.25;5.13;;;;;;;39.93;28.18;94733.50;5109417;27;20204;-75
2022/05/25 09:40:02;;;;;;;7.97;5.80;;;;;;;39.89;28.46;94743.28;5106836;28;20192;-74
2022/05/25 09:42:34;;;;;;;9.77;5.47;;;;;;;39.75;28.52;94743.53;5109184;27;20220;-75
2022/05/25 09:45:01;;;;;;;7.55;5.40;;;;;;;39.54;28.94;94734.59;5107481;28;20208;-75
2022/05/25 09:47:40;;;;;;;9.40;5.63;;;;;;;39.43;28.80;94742.19;5107973;28;20200;-74
2022/05/25 09:50:13;;;;;;;10.05;5.68;;;;;;;39.28;29.00;94737.34;5104916;28;20189;-76
2022/05/25 09:52:43;;;;;;;6.88;5.82;;;;;;;39.13;28.97;94726.03;5109225;28;20654;-74
2022/05/25 09:55:16;;;;;;;10.40;5.20;;;;;;;39.01;29.14;94727.78;5110683;28;20185;-75
2022/05/25 09:57:51;;;;;;;9.38;5.38;;;;;;;38.86;29.24;94716.47;5109907;27;20196;-75
2022/05/25 10:00:22;;;;;;;6.70;5.50;;;;;;;38.76;29.48;94714.06;5107450;28;20203;-75
2022/05/25 10:02:52;;;;;;;7.65;5.97;;;;;;;38.61;29.41;94704.66;5109519;28;20657;-75
2022/05/25 10:05:24;;;;;;;6.30;5.32;;;;;;;38.47;29.63;94693.31;5109890;28;20197;-74
2022/05/25 10:07:54;;;;;;;10.68;5.85;;;;;;;38.38;29.74;94698.66;5109932;28;20214;-76
2022/05/25 10:10:33;;;;;;;10.05;5.88;;;;;;;38.26;29.88;94698.47;5107316;28;20678;-75
2022/05/25 10:13:13;;;;;;;7.97;6.13;;;;;;;38.14;30.02;94690.28;5109536;28;20638;-74
2022/05/25 10:15:41;;;;;;;9.77;5.45;;;;;;;38.02;30.18;94687.44;5109260;28;20649;-75
2022/05/25 10:18:14;;;;;;;10.65;6.05;;;;;;;37.92;30.15;94690.41;5109550;28;20230;-74
2022/05/25 10:20:47;;;;;;;15.13;6.32;;;;;;;37.82;30.41;94694.09;5109983;27;20239;-76
2022/05/25 10:23:22;;;;;;;10.90;6.40;;;;;;;37.70;30.47;94689.38;5109522;28;20223;-75
2022/05/25 10:25:53;;;;;;;9.93;5.95;;;;;;;37.59;30.53;94685.41;5107770;28;20180;-75
2022/05/25 10:28:24;;;;;;;12.77;6.63;;;;;;;37.53;30.71;94700.78;5109747;28;20208;-76
2022/05/25 10:36:52;;;;;;;10.32;6.38;;;;;;;37.12;30.81;94674.34;5109595;27;20273;-75
2022/05/25 10:39:25;;;;;;;13.25;6.15;;;;;;;37.09;30.92;94666.94;5109108;28;20220;-75
2022/05/25 10:42:21;;;;;;;11.45;6.18;;;;;;;37.05;31.27;94672.13;5106949;28;20196;-75
2022/05/25 10:44:59;;;;;;;11.40;5.53;;;;;;;36.97;31.54;94667.53;5024900;28;20301;-76
2022/05/25 10:47:41;;;;;;;9.30;6.15;;;;;;;36.91;31.47;94661.47;5026042;28;20194;-76
2022/05/25 10:50:16;;;;;;;8.05;5.75;;;;;;;36.85;31.50;94653.94;5025300;28;20199;-76
2022/05/25 10:52:49;;;;;;;9.30;6.03;;;;;;;36.80;31.76;94660.19;5026360;28;20188;-76
2022/05/25 10:55:16;;;;;;;9.55;6.22;;;;;;;36.75;31.47;94659.53;5028347;28;20199;-74
2022/05/25 10:58:02;;;;;;;12.45;5.55;;;;;;;36.68;31.43;94655.38;5029400;28;20184;-76
2022/05/25 11:00:44;;;;;;;8.75;6.13;;;;;;;36.64;31.91;94653.63;5030896;28;20221;-74
2022/05/25 11:03:43;;;;;;;9.25;5.65;;;;;;;36.58;31.96;94646.88;5028156;28;20187;-75
2022/05/25 11:06:28;;;;;;;12.57;6.30;;;;;;;36.50;31.88;94645.69;5030560;28;20235;-74
2022/05/25 11:09:09;;;;;;;10.65;5.60;;;;;;;36.43;31.94;94643.41;5027854;28;20203;-75
2022/05/25 11:11:48;;;;;;;9.45;5.57;;;;;;;36.36;32.20;94636.97;5029796;28;20199;-76
2022/05/25 11:14:38;;;;;;;7.35;5.80;;;;;;;36.30;31.71;94636.25;5028567;28;20199;-76
2022/05/25 11:17:13;;;;;;;10.38;5.95;;;;;;;36.24;31.96;94642.03;5026669;28;20200;-74
2022/05/25 11:20:04;;;;;;;11.70;5.57;;;;;;;36.18;31.77;94626.16;5025127;28;20680;-76
2022/05/25 11:22:40;;;;;;;7.55;5.40;;;;;;;36.11;31.99;94625.78;5049941;28;20258;-75
2022/05/25 11:25:45;;;;;;;11.98;5.53;;;;;;;36.06;32.17;94628.56;5047349;28;20238;-75
2022/05/25 11:28:26;;;;;;;8.15;5.47;;;;;;;35.98;31.90;94629.28;5047380;28;20195;-74
2022/05/25 11:31:06;;;;;;;13.63;5.70;;;;;;;35.94;31.72;94620.28;5049836;28;20552;-75
2022/05/25 11:34:14;;;;;;;7.30;5.15;;;;;;;35.88;31.86;94630.25;5048551;28;20583;-76
2022/05/25 11:37:00;;;;;;;8.20;4.70;;;;;;;35.79;31.90;94616.03;4990337;28;20211;-77
2022/05/25 11:39:38;;;;;;;15.27;5.05;;;;;;;35.78;31.79;94619.00;4990122;28;20193;-75
2022/05/25 11:42:15;;;;;;;6.78;4.80;;;;;;;35.71;31.44;94619.44;4989436;28;20752;-74
2022/05/25 11:44:57;;;;;;;4.85;4.15;;;;;;;35.64;31.58;94611.06;4989999;28;20239;-74
2022/05/25 11:47:37;;;;;;;11.05;5.05;;;;;;;35.63;31.58;94604.94;4990231;28;20678;-73
2022/05/25 11:50:18;;;;;;;8.20;4.65;;;;;;;35.59;31.79;94608.50;4985147;28;20192;-75
2022/05/25 11:53:01;;;;;;;6.45;4.95;;;;;;;35.55;31.72;94608.31;4990444;28;20207;-74
2022/05/25 11:55:33;;;;;;;9.13;4.55;;;;;;;35.51;31.87;94601.22;4990111;28;20219;-75
2022/05/25 11:58:08;;;;;;;7.22;4.38;;;;;;;35.48;31.62;94599.16;4986978;28;20189;-73
2022/05/25 12:00:45;;;;;;;5.30;4.80;;;;;;;35.36;31.51;94588.97;5040121;28;20205;-74
2022/05/25 12:03:50;;;;;;;5.70;4.63;;;;;;;35.41;31.08;94591.56;5048905;28;20198;-75
2022/05/25 12:06:37;;;;;;;8.82;4.53;;;;;;;35.35;30.81;94582.88;5048261;28;20202;-75